createdAt,value
2022-12-04T00:00:15.133Z,2.90
2022-12-04T00:05:10.187Z,0.80
2022-12-04T00:10:04.986Z,0.60
2022-12-04T00:17:48.177Z,-0.20
2022-12-04T00:34:58.579Z,0.70
2022-12-04T01:11:47.413Z,0.60
2022-12-04T01:19:11.462Z,0.60
2022-12-04T01:21:39.861Z,0.60
2022-12-04T01:36:25.571Z,0.70
2022-12-04T01:41:25.546Z,0.60
2022-12-04T01:44:17.312Z,0.70
2022-12-04T01:46:47.657Z,0.70
2022-12-04T01:49:23.042Z,0.60
2022-12-04T01:51:54.636Z,0.70
2022-12-04T01:54:28.619Z,0.70
2022-12-04T01:57:01.795Z,0.70
2022-12-04T01:59:33.188Z,0.70
2022-12-04T02:02:05.614Z,-1.80
2022-12-04T02:04:34.575Z,0.60
2022-12-04T02:07:01.466Z,0.70
2022-12-04T02:09:29.209Z,0.70
2022-12-04T02:12:17.610Z,0.60
2022-12-04T02:17:20.143Z,0.60
2022-12-04T02:20:09.623Z,0.60
2022-12-04T02:23:02.282Z,0.60
2022-12-04T02:25:37.621Z,0.60
2022-12-04T02:28:14.956Z,0.70
2022-12-04T02:30:44.129Z,0.70
2022-12-04T02:33:16.667Z,0.60
2022-12-04T02:35:49.233Z,0.60
2022-12-04T02:38:38.801Z,0.60
2022-12-04T02:43:39.196Z,0.60
2022-12-04T02:46:17.202Z,0.70
2022-12-04T02:48:47.142Z,-0.70
2022-12-04T02:51:16.123Z,0.70
2022-12-04T02:53:56.054Z,0.70
2022-12-04T02:56:32.358Z,3.20
2022-12-04T02:59:12.662Z,0.80
2022-12-04T03:01:45.397Z,0.50
2022-12-04T03:04:22.235Z,0.60
2022-12-04T03:06:54.832Z,0.60
2022-12-04T03:09:39.659Z,0.60
2022-12-04T03:12:30.959Z,0.60
2022-12-04T03:15:02.864Z,0.60
2022-12-04T03:17:35.464Z,0.60
2022-12-04T03:20:08.580Z,0.50
2022-12-04T03:22:39.763Z,0.70
2022-12-04T03:25:08.774Z,0.60
2022-12-04T03:30:09.054Z,0.40
2022-12-04T03:32:38.742Z,0.60
2022-12-04T03:37:41.805Z,0.60
2022-12-04T03:40:30.450Z,0.60
2022-12-04T03:43:06.099Z,0.50
2022-12-04T03:45:44.672Z,0.60
2022-12-04T03:48:26.205Z,0.60
2022-12-04T03:50:58.090Z,0.70
2022-12-04T03:53:45.835Z,0.70
2022-12-04T03:56:20.356Z,0.60
2022-12-04T03:58:52.470Z,0.60
2022-12-04T04:01:23.000Z,0.70
2022-12-04T04:03:52.679Z,0.70
2022-12-04T04:06:25.052Z,0.60
2022-12-04T04:08:58.892Z,0.70
2022-12-04T04:11:34.964Z,0.70
2022-12-04T04:14:33.476Z,0.70
2022-12-04T04:17:23.582Z,0.70
2022-12-04T04:20:14.130Z,0.70
2022-12-04T04:25:29.033Z,0.60
2022-12-04T04:27:57.856Z,0.80
2022-12-04T04:30:26.337Z,0.80
2022-12-04T04:33:03.696Z,0.80
2022-12-04T04:36:00.006Z,0.80
2022-12-04T04:38:41.899Z,0.80
2022-12-04T04:43:44.022Z,0.70
2022-12-04T04:46:31.126Z,0.80
2022-12-04T04:49:01.955Z,0.70
2022-12-04T04:51:33.507Z,0.80
2022-12-04T04:54:04.387Z,0.80
2022-12-04T05:01:28.559Z,0.80
2022-12-04T05:08:49.597Z,0.70
2022-12-04T05:11:17.308Z,0.80
2022-12-04T05:16:13.699Z,0.80
2022-12-04T05:21:16.533Z,0.80
2022-12-04T05:23:43.796Z,0.90
2022-12-04T05:31:06.456Z,0.80
2022-12-04T05:36:03.549Z,0.70
2022-12-04T05:38:30.945Z,0.90
2022-12-04T05:40:59.340Z,0.90
2022-12-04T05:48:20.983Z,0.80
2022-12-04T05:58:09.282Z,0.90
2022-12-04T06:03:03.631Z,0.90
2022-12-04T06:05:32.607Z,0.90
2022-12-04T06:15:25.034Z,0.90
2022-12-04T06:30:09.866Z,0.90
2022-12-04T06:42:26.583Z,1.00
2022-12-04T06:47:20.575Z,0.90
2022-12-04T06:49:50.248Z,0.90
2022-12-04T07:24:16.745Z,1.10
2022-12-04T07:29:10.960Z,1.10
2022-12-04T07:31:38.410Z,1.10
2022-12-04T07:34:05.319Z,1.10
2022-12-04T07:38:59.783Z,1.10
2022-12-04T07:46:25.059Z,1.10
2022-12-04T07:51:22.240Z,1.20
2022-12-04T07:53:51.133Z,1.20
2022-12-04T07:58:46.502Z,1.10
2022-12-04T08:01:22.280Z,1.00
2022-12-04T08:03:51.385Z,1.00
2022-12-04T08:06:20.274Z,1.10
2022-12-04T08:08:47.654Z,1.20
2022-12-04T08:11:17.629Z,1.10
2022-12-04T08:13:45.089Z,1.00
2022-12-04T08:16:12.906Z,1.10
2022-12-04T08:21:10.671Z,1.20
2022-12-04T08:26:05.457Z,1.10
2022-12-04T08:31:07.809Z,1.20
2022-12-04T08:33:35.200Z,1.30
2022-12-04T08:36:05.643Z,1.20
2022-12-04T08:41:05.381Z,1.20
2022-12-04T08:46:02.526Z,1.20
2022-12-04T08:48:29.862Z,1.30
2022-12-04T08:53:24.674Z,1.30
2022-12-04T08:55:52.818Z,1.40
2022-12-04T08:58:20.563Z,1.30
2022-12-04T09:00:48.412Z,1.30
2022-12-04T09:03:18.241Z,1.20
2022-12-04T09:05:46.112Z,1.30
2022-12-04T09:08:15.452Z,1.30
2022-12-04T09:10:42.976Z,1.30
2022-12-04T09:15:40.860Z,1.40
2022-12-04T09:18:08.965Z,1.40
2022-12-04T09:23:05.468Z,1.40
2022-12-04T09:25:36.538Z,1.30
2022-12-04T09:28:04.394Z,1.20
2022-12-04T09:35:25.740Z,1.40
2022-12-04T09:40:37.740Z,1.30
2022-12-04T09:43:40.596Z,1.30
2022-12-04T09:46:16.995Z,1.40
2022-12-04T09:48:46.191Z,1.40
2022-12-04T09:51:18.907Z,1.30
2022-12-04T09:53:52.481Z,1.40
2022-12-04T09:56:20.780Z,1.50
2022-12-04T09:58:51.655Z,1.50
2022-12-04T10:01:21.201Z,1.50
2022-12-04T10:06:22.384Z,1.60
2022-12-04T10:09:12.379Z,1.60
2022-12-04T10:12:30.233Z,1.50
2022-12-04T10:15:06.839Z,1.50
2022-12-04T10:18:03.034Z,1.40
2022-12-04T10:23:14.372Z,1.50
2022-12-04T10:28:41.240Z,1.50
2022-12-04T10:31:13.448Z,1.60
2022-12-04T10:36:16.018Z,1.60
2022-12-04T10:39:21.937Z,1.60
2022-12-04T10:42:06.403Z,1.70
2022-12-04T10:47:02.100Z,1.70
2022-12-04T10:49:31.919Z,1.60
2022-12-04T10:51:58.818Z,1.70
2022-12-04T10:54:33.577Z,1.60
2022-12-04T10:57:18.410Z,1.60
2022-12-04T10:59:54.923Z,1.60
2022-12-04T11:05:44.977Z,1.50
2022-12-04T11:08:26.754Z,1.50
2022-12-04T11:11:06.299Z,1.70
2022-12-04T11:16:01.148Z,1.60
2022-12-04T11:18:46.962Z,1.70
2022-12-04T11:21:25.974Z,1.60
2022-12-04T11:23:53.450Z,1.70
2022-12-04T11:26:33.805Z,1.70
2022-12-04T11:29:02.004Z,1.70
2022-12-04T11:31:30.087Z,1.50
2022-12-04T11:34:06.987Z,1.50
2022-12-04T11:36:42.672Z,1.60
2022-12-04T11:39:30.847Z,1.70
2022-12-04T11:42:14.101Z,1.70
2022-12-04T11:44:59.818Z,1.60
2022-12-04T11:47:32.625Z,1.70
2022-12-04T11:50:25.108Z,0.30
2022-12-04T11:53:09.316Z,1.60
2022-12-04T11:56:00.795Z,1.70
2022-12-04T11:58:55.030Z,1.60
2022-12-04T12:01:46.337Z,1.70
2022-12-04T12:04:18.977Z,1.70
2022-12-04T12:07:07.273Z,1.60
2022-12-04T12:09:43.713Z,1.60
2022-12-04T12:12:19.177Z,1.70
2022-12-04T12:15:14.294Z,1.60
2022-12-04T12:18:19.204Z,1.70
2022-12-04T12:21:41.523Z,1.60
2022-12-04T12:24:22.946Z,1.60
2022-12-04T12:27:01.722Z,1.70
2022-12-04T12:29:58.450Z,1.70
2022-12-04T12:37:45.597Z,1.60
2022-12-04T12:40:31.999Z,1.50
2022-12-04T12:43:22.084Z,1.50
2022-12-04T12:45:59.640Z,1.50
2022-12-04T12:51:36.065Z,1.50
2022-12-04T12:54:21.050Z,1.50
2022-12-04T12:56:53.605Z,1.50
2022-12-04T12:59:25.312Z,1.50
2022-12-04T13:02:07.912Z,1.50
2022-12-04T13:04:41.796Z,1.50
2022-12-04T13:07:26.096Z,1.60
2022-12-04T13:10:16.065Z,1.60
2022-12-04T13:12:57.866Z,1.60
2022-12-04T13:15:32.619Z,1.50
2022-12-04T13:20:33.756Z,1.50
2022-12-04T13:25:53.237Z,1.40
2022-12-04T13:28:36.128Z,1.50
2022-12-04T13:31:37.860Z,1.50
2022-12-04T13:34:23.682Z,1.50
2022-12-04T13:37:11.895Z,1.50
2022-12-04T13:39:50.656Z,1.30
2022-12-04T13:42:28.906Z,1.50
2022-12-04T13:45:05.959Z,1.40
2022-12-04T13:47:35.673Z,1.50
2022-12-04T13:50:08.481Z,1.60
2022-12-04T13:52:42.314Z,1.50
2022-12-04T13:55:31.161Z,1.50
2022-12-04T13:58:22.646Z,1.60
2022-12-04T14:01:01.207Z,1.50
2022-12-04T14:03:59.432Z,1.50
2022-12-04T14:06:37.624Z,1.50
2022-12-04T14:09:19.316Z,1.60
2022-12-04T14:11:49.165Z,1.50
2022-12-04T14:14:28.130Z,1.60
2022-12-04T14:16:57.632Z,1.60
2022-12-04T14:19:36.859Z,1.50
2022-12-04T14:22:04.064Z,1.70
2022-12-04T14:27:14.314Z,1.70
2022-12-04T14:29:49.479Z,1.60
2022-12-04T14:32:33.594Z,3.50
2022-12-04T14:35:01.290Z,1.70
2022-12-04T14:37:34.107Z,1.70
2022-12-04T14:40:04.156Z,1.70
2022-12-04T14:42:37.048Z,1.70
2022-12-04T14:45:25.606Z,1.60
2022-12-04T14:47:58.496Z,1.60
2022-12-04T14:50:37.407Z,1.60
2022-12-04T14:53:11.778Z,1.70
2022-12-04T14:56:06.063Z,1.70
2022-12-04T15:01:18.447Z,1.70
2022-12-04T15:03:47.793Z,1.70
2022-12-04T15:06:26.598Z,1.60
2022-12-04T15:09:23.401Z,1.70
2022-12-04T15:12:13.998Z,1.70
2022-12-04T15:17:11.040Z,1.60
2022-12-04T15:22:11.669Z,1.70
2022-12-04T15:24:39.135Z,1.70
2022-12-04T15:27:07.085Z,1.70
2022-12-04T15:29:38.032Z,1.70
2022-12-04T15:32:11.112Z,1.70
2022-12-04T15:37:09.135Z,1.60
2022-12-04T15:39:38.019Z,1.70
2022-12-04T15:42:24.678Z,1.70
2022-12-04T15:45:16.172Z,1.70
2022-12-04T15:47:45.945Z,1.70
2022-12-04T15:50:15.782Z,1.60
2022-12-04T15:53:20.106Z,1.60
2022-12-04T15:55:54.014Z,1.70
2022-12-04T15:58:37.940Z,1.70
2022-12-04T16:01:10.471Z,1.70
2022-12-04T16:03:43.245Z,1.70
2022-12-04T16:06:31.573Z,1.70
2022-12-04T16:09:00.883Z,1.80
2022-12-04T16:11:36.999Z,1.80
2022-12-04T16:14:12.636Z,1.80
2022-12-04T16:16:44.754Z,1.80
2022-12-04T16:19:27.046Z,1.80
2022-12-04T16:24:22.621Z,1.80
2022-12-04T16:26:51.110Z,1.80
2022-12-04T16:31:45.217Z,1.80
2022-12-04T16:34:13.011Z,1.80
2022-12-04T16:41:34.852Z,1.70
2022-12-04T16:46:30.094Z,1.80
2022-12-04T16:48:57.151Z,1.70
2022-12-04T16:51:27.646Z,1.70
2022-12-04T16:53:55.201Z,1.70
2022-12-04T16:56:22.271Z,1.70
2022-12-04T16:58:49.716Z,1.80
2022-12-04T17:01:21.801Z,1.70
2022-12-04T17:03:49.330Z,1.60
2022-12-04T17:06:16.727Z,1.70
2022-12-04T17:08:43.858Z,1.80
2022-12-04T17:11:15.459Z,1.60
2022-12-04T17:13:42.635Z,1.70
2022-12-04T17:16:14.021Z,1.80
2022-12-04T17:21:11.158Z,1.80
2022-12-04T17:26:07.761Z,1.80
2022-12-04T17:31:06.161Z,1.80
2022-12-04T17:41:02.164Z,1.70
2022-12-04T17:43:30.498Z,1.80
2022-12-04T17:48:25.490Z,1.80
2022-12-04T17:51:04.773Z,1.90
2022-12-04T17:56:06.665Z,1.90
2022-12-04T18:01:06.556Z,1.90
2022-12-04T18:10:57.514Z,1.90
2022-12-04T18:13:25.749Z,1.90
2022-12-04T18:20:46.932Z,2.00
2022-12-04T18:28:08.127Z,2.00
2022-12-04T18:42:51.960Z,2.00
2022-12-04T18:47:47.122Z,1.90
2022-12-04T19:00:04.739Z,2.00
2022-12-04T19:10:11.259Z,2.10
2022-12-04T19:15:06.707Z,2.00
2022-12-04T19:22:29.875Z,2.00
2022-12-04T19:34:49.122Z,2.00
2022-12-04T19:37:17.104Z,2.10
2022-12-04T19:39:44.020Z,2.10
2022-12-04T19:42:11.147Z,2.10
2022-12-04T19:44:53.264Z,2.00
2022-12-04T19:47:20.126Z,2.00
2022-12-04T20:02:11.770Z,2.10
2022-12-04T20:09:33.297Z,2.10
2022-12-04T20:22:28.178Z,2.10
2022-12-04T20:36:27.230Z,2.10
2022-12-04T20:39:15.509Z,2.10
2022-12-04T21:04:24.872Z,2.10
2022-12-04T21:21:36.749Z,2.20
2022-12-04T21:24:28.706Z,2.10
2022-12-04T21:35:44.345Z,2.10
2022-12-04T21:38:38.937Z,2.20
2022-12-04T21:47:19.999Z,2.10
2022-12-04T21:50:07.869Z,2.10
2022-12-04T21:52:55.412Z,2.10
2022-12-04T21:55:57.005Z,2.10
2022-12-04T22:04:19.457Z,2.10
2022-12-04T22:12:50.576Z,2.10
2022-12-04T22:15:39.520Z,2.20
2022-12-04T22:21:16.151Z,2.20
2022-12-04T22:24:05.060Z,2.20
2022-12-04T22:32:43.324Z,2.20
2022-12-04T22:41:10.142Z,2.10
2022-12-04T22:46:45.261Z,2.20
2022-12-04T22:55:08.234Z,2.20
2022-12-04T22:57:55.539Z,2.20
2022-12-04T23:06:19.824Z,2.00
2022-12-04T23:09:13.951Z,2.10
2022-12-04T23:14:49.075Z,2.10
2022-12-04T23:26:05.925Z,2.10
2022-12-04T23:28:53.268Z,2.20
2022-12-04T23:34:28.033Z,2.20
2022-12-04T23:45:40.473Z,2.10
2022-12-04T23:51:18.003Z,5.30
